sensor_id;sensor_type;location;lat;lon;timestamp;temperature;humidity
59923;DHT22;45778;51.142;3.732;2023-06-22T00:00:53;18.30;99.90
59923;DHT22;45778;51.142;3.732;2023-06-22T00:03:20;18.40;99.90
59923;DHT22;45778;51.142;3.732;2023-06-22T00:05:47;18.30;99.90
59923;DHT22;45778;51.142;3.732;2023-06-22T00:08:13;18.30;99.90
59923;DHT22;45778;51.142;3.732;2023-06-22T00:10:38;18.30;99.90
59923;DHT22;45778;51.142;3.732;2023-06-22T00:13:05;18.20;99.90
59923;DHT22;45778;51.142;3.732;2023-06-22T00:15:31;18.20;99.90
59923;DHT22;45778;51.142;3.732;2023-06-22T00:17:57;18.20;99.90
59923;DHT22;45778;51.142;3.732;2023-06-22T00:20:23;18.10;99.90
59923;DHT22;45778;51.142;3.732;2023-06-22T00:22:53;18.20;99.90
59923;DHT22;45778;51.142;3.732;2023-06-22T00:25:19;18.10;99.90
59923;DHT22;45778;51.142;3.732;2023-06-22T00:27:45;18.00;99.90
59923;DHT22;45778;51.142;3.732;2023-06-22T00:30:11;18.00;99.90
59923;DHT22;45778;51.142;3.732;2023-06-22T00:32:36;18.00;99.90
59923;DHT22;45778;51.142;3.732;2023-06-22T00:35:02;18.00;99.90
59923;DHT22;45778;51.142;3.732;2023-06-22T00:37:28;18.10;99.90
59923;DHT22;45778;51.142;3.732;2023-06-22T00:39:55;18.10;99.90
59923;DHT22;45778;51.142;3.732;2023-06-22T00:42:21;18.00;99.90
59923;DHT22;45778;51.142;3.732;2023-06-22T00:44:47;17.90;99.90
59923;DHT22;45778;51.142;3.732;2023-06-22T00:47:17;17.90;99.90
59923;DHT22;45778;51.142;3.732;2023-06-22T00:49:43;17.90;99.90
59923;DHT22;45778;51.142;3.732;2023-06-22T00:52:11;17.90;99.90
59923;DHT22;45778;51.142;3.732;2023-06-22T00:54:47;17.80;99.90
59923;DHT22;45778;51.142;3.732;2023-06-22T00:57:14;17.70;99.90
59923;DHT22;45778;51.142;3.732;2023-06-22T00:59:47;17.60;99.90
59923;DHT22;45778;51.142;3.732;2023-06-22T01:02:13;17.50;99.90
59923;DHT22;45778;51.142;3.732;2023-06-22T01:04:39;17.70;99.90
59923;DHT22;45778;51.142;3.732;2023-06-22T01:07:23;17.70;99.90
59923;DHT22;45778;51.142;3.732;2023-06-22T01:12:45;17.70;99.90
59923;DHT22;45778;51.142;3.732;2023-06-22T01:15:23;17.70;99.90
59923;DHT22;45778;51.142;3.732;2023-06-22T01:17:51;17.40;99.90
59923;DHT22;45778;51.142;3.732;2023-06-22T01:20:18;17.50;99.90
59923;DHT22;45778;51.142;3.732;2023-06-22T01:23:10;17.40;99.90
59923;DHT22;45778;51.142;3.732;2023-06-22T01:25:50;17.50;99.90
59923;DHT22;45778;51.142;3.732;2023-06-22T01:31:03;17.50;99.90
59923;DHT22;45778;51.142;3.732;2023-06-22T01:33:33;17.30;99.90
59923;DHT22;45778;51.142;3.732;2023-06-22T01:36:01;17.30;99.90
59923;DHT22;45778;51.142;3.732;2023-06-22T01:38:28;17.20;99.90
59923;DHT22;45778;51.142;3.732;2023-06-22T01:40:54;17.20;99.90
59923;DHT22;45778;51.142;3.732;2023-06-22T01:43:21;17.20;99.90
59923;DHT22;45778;51.142;3.732;2023-06-22T01:45:49;17.10;99.90
59923;DHT22;45778;51.142;3.732;2023-06-22T01:48:15;17.20;99.90
59923;DHT22;45778;51.142;3.732;2023-06-22T01:50:41;17.20;99.90
59923;DHT22;45778;51.142;3.732;2023-06-22T01:53:07;17.10;99.90
59923;DHT22;45778;51.142;3.732;2023-06-22T01:55:32;17.20;99.90
59923;DHT22;45778;51.142;3.732;2023-06-22T01:57:58;17.20;99.90
59923;DHT22;45778;51.142;3.732;2023-06-22T02:00:26;17.20;99.90
59923;DHT22;45778;51.142;3.732;2023-06-22T02:05:49;17.30;99.90
59923;DHT22;45778;51.142;3.732;2023-06-22T02:08:41;17.20;99.90
59923;DHT22;45778;51.142;3.732;2023-06-22T02:11:13;17.00;99.90
59923;DHT22;45778;51.142;3.732;2023-06-22T02:13:40;17.00;99.90
59923;DHT22;45778;51.142;3.732;2023-06-22T02:16:10;17.10;99.90
59923;DHT22;45778;51.142;3.732;2023-06-22T02:18:36;17.10;99.90
59923;DHT22;45778;51.142;3.732;2023-06-22T02:21:02;17.00;99.90
59923;DHT22;45778;51.142;3.732;2023-06-22T02:23:28;17.00;99.90
59923;DHT22;45778;51.142;3.732;2023-06-22T02:25:54;17.10;99.90
59923;DHT22;45778;51.142;3.732;2023-06-22T02:28:20;17.00;99.90
59923;DHT22;45778;51.142;3.732;2023-06-22T02:30:45;17.00;99.90
59923;DHT22;45778;51.142;3.732;2023-06-22T02:33:11;17.10;99.90
59923;DHT22;45778;51.142;3.732;2023-06-22T02:35:37;17.00;99.90
59923;DHT22;45778;51.142;3.732;2023-06-22T02:38:04;16.80;99.90
59923;DHT22;45778;51.142;3.732;2023-06-22T02:40:30;16.70;99.90
59923;DHT22;45778;51.142;3.732;2023-06-22T02:42:56;16.70;99.90
59923;DHT22;45778;51.142;3.732;2023-06-22T02:45:23;16.60;99.90
59923;DHT22;45778;51.142;3.732;2023-06-22T02:47:49;16.70;99.90
59923;DHT22;45778;51.142;3.732;2023-06-22T02:50:15;16.90;99.90
59923;DHT22;45778;51.142;3.732;2023-06-22T02:52:41;16.80;99.90
59923;DHT22;45778;51.142;3.732;2023-06-22T02:55:07;16.70;99.90
59923;DHT22;45778;51.142;3.732;2023-06-22T02:57:33;16.70;99.90
59923;DHT22;45778;51.142;3.732;2023-06-22T02:59:59;16.70;99.90
59923;DHT22;45778;51.142;3.732;2023-06-22T03:02:25;16.60;99.90
59923;DHT22;45778;51.142;3.732;2023-06-22T03:04:52;16.70;99.90
59923;DHT22;45778;51.142;3.732;2023-06-22T03:07:19;16.70;99.90
59923;DHT22;45778;51.142;3.732;2023-06-22T03:09:45;16.70;99.90
59923;DHT22;45778;51.142;3.732;2023-06-22T03:12:11;16.70;99.90
59923;DHT22;45778;51.142;3.732;2023-06-22T03:14:37;16.70;99.90
59923;DHT22;45778;51.142;3.732;2023-06-22T03:17:04;16.60;99.90
59923;DHT22;45778;51.142;3.732;2023-06-22T03:19:30;16.80;99.90
59923;DHT22;45778;51.142;3.732;2023-06-22T03:22:00;16.80;99.90
59923;DHT22;45778;51.142;3.732;2023-06-22T03:24:26;16.70;99.90
59923;DHT22;45778;51.142;3.732;2023-06-22T03:26:54;16.70;99.90
59923;DHT22;45778;51.142;3.732;2023-06-22T03:29:20;16.80;99.90
59923;DHT22;45778;51.142;3.732;2023-06-22T03:31:45;16.80;99.90
59923;DHT22;45778;51.142;3.732;2023-06-22T03:34:11;16.80;99.90
59923;DHT22;45778;51.142;3.732;2023-06-22T03:36:37;16.80;99.90
59923;DHT22;45778;51.142;3.732;2023-06-22T03:39:02;16.80;99.90
59923;DHT22;45778;51.142;3.732;2023-06-22T03:41:28;16.70;99.90
59923;DHT22;45778;51.142;3.732;2023-06-22T03:43:54;16.80;99.90
59923;DHT22;45778;51.142;3.732;2023-06-22T03:46:19;16.80;99.90
59923;DHT22;45778;51.142;3.732;2023-06-22T03:48:45;16.70;99.90
59923;DHT22;45778;51.142;3.732;2023-06-22T03:51:11;16.70;99.90
59923;DHT22;45778;51.142;3.732;2023-06-22T03:53:37;16.80;99.90
59923;DHT22;45778;51.142;3.732;2023-06-22T03:56:03;16.90;99.90
59923;DHT22;45778;51.142;3.732;2023-06-22T03:58:28;16.80;99.90
59923;DHT22;45778;51.142;3.732;2023-06-22T04:00:58;16.70;99.90
59923;DHT22;45778;51.142;3.732;2023-06-22T04:03:25;16.80;99.90
59923;DHT22;45778;51.142;3.732;2023-06-22T04:05:51;16.90;99.90
59923;DHT22;45778;51.142;3.732;2023-06-22T04:08:16;16.90;99.90
59923;DHT22;45778;51.142;3.732;2023-06-22T04:10:42;17.00;99.90
59923;DHT22;45778;51.142;3.732;2023-06-22T04:13:08;17.00;99.90
59923;DHT22;45778;51.142;3.732;2023-06-22T04:15:34;17.00;99.90
59923;DHT22;45778;51.142;3.732;2023-06-22T04:17:59;17.00;99.90
59923;DHT22;45778;51.142;3.732;2023-06-22T04:20:25;17.10;99.90
59923;DHT22;45778;51.142;3.732;2023-06-22T04:22:53;17.00;99.90
59923;DHT22;45778;51.142;3.732;2023-06-22T04:25:19;17.10;99.90
59923;DHT22;45778;51.142;3.732;2023-06-22T04:27:45;17.30;99.90
59923;DHT22;45778;51.142;3.732;2023-06-22T04:30:11;17.40;99.90
59923;DHT22;45778;51.142;3.732;2023-06-22T04:32:40;17.50;99.90
59923;DHT22;45778;51.142;3.732;2023-06-22T04:35:06;17.50;99.90
59923;DHT22;45778;51.142;3.732;2023-06-22T04:37:33;17.60;99.90
59923;DHT22;45778;51.142;3.732;2023-06-22T04:39:59;17.90;99.90
59923;DHT22;45778;51.142;3.732;2023-06-22T04:42:28;18.00;99.90
59923;DHT22;45778;51.142;3.732;2023-06-22T04:44:54;18.20;99.90
59923;DHT22;45778;51.142;3.732;2023-06-22T04:47:20;18.20;99.90
59923;DHT22;45778;51.142;3.732;2023-06-22T04:49:46;18.30;99.90
59923;DHT22;45778;51.142;3.732;2023-06-22T04:52:13;18.50;99.90
59923;DHT22;45778;51.142;3.732;2023-06-22T04:54:40;18.60;99.90
59923;DHT22;45778;51.142;3.732;2023-06-22T04:57:13;18.70;99.90
59923;DHT22;45778;51.142;3.732;2023-06-22T04:59:39;18.90;99.90
59923;DHT22;45778;51.142;3.732;2023-06-22T05:02:07;19.00;99.90
59923;DHT22;45778;51.142;3.732;2023-06-22T05:04:34;19.30;99.90
59923;DHT22;45778;51.142;3.732;2023-06-22T05:07:02;19.50;99.90
59923;DHT22;45778;51.142;3.732;2023-06-22T05:09:28;19.60;99.90
59923;DHT22;45778;51.142;3.732;2023-06-22T05:11:54;19.50;99.90
59923;DHT22;45778;51.142;3.732;2023-06-22T05:14:19;19.80;99.90
59923;DHT22;45778;51.142;3.732;2023-06-22T05:16:46;20.00;99.90
59923;DHT22;45778;51.142;3.732;2023-06-22T05:19:12;20.20;99.90
59923;DHT22;45778;51.142;3.732;2023-06-22T05:21:38;20.40;99.90
59923;DHT22;45778;51.142;3.732;2023-06-22T05:24:04;20.60;99.90
59923;DHT22;45778;51.142;3.732;2023-06-22T05:26:31;20.70;99.90
59923;DHT22;45778;51.142;3.732;2023-06-22T05:28:59;20.90;99.90
59923;DHT22;45778;51.142;3.732;2023-06-22T05:31:26;21.10;99.90
59923;DHT22;45778;51.142;3.732;2023-06-22T05:33:52;21.40;99.90
59923;DHT22;45778;51.142;3.732;2023-06-22T05:36:19;21.40;99.90
59923;DHT22;45778;51.142;3.732;2023-06-22T05:38:56;21.40;99.90
59923;DHT22;45778;51.142;3.732;2023-06-22T05:41:21;21.40;99.90
59923;DHT22;45778;51.142;3.732;2023-06-22T05:43:47;20.80;99.90
59923;DHT22;45778;51.142;3.732;2023-06-22T05:46:13;20.90;99.90
59923;DHT22;45778;51.142;3.732;2023-06-22T05:48:39;21.20;99.90
59923;DHT22;45778;51.142;3.732;2023-06-22T05:51:04;21.40;99.90
59923;DHT22;45778;51.142;3.732;2023-06-22T05:53:30;21.50;99.90
59923;DHT22;45778;51.142;3.732;2023-06-22T05:55:56;21.70;99.90
59923;DHT22;45778;51.142;3.732;2023-06-22T05:58:21;21.80;99.90
59923;DHT22;45778;51.142;3.732;2023-06-22T06:00:47;21.90;99.90
59923;DHT22;45778;51.142;3.732;2023-06-22T06:03:14;21.80;99.90
59923;DHT22;45778;51.142;3.732;2023-06-22T06:05:43;21.90;99.90
59923;DHT22;45778;51.142;3.732;2023-06-22T06:08:10;22.10;99.90
59923;DHT22;45778;51.142;3.732;2023-06-22T06:10:36;22.30;99.90
59923;DHT22;45778;51.142;3.732;2023-06-22T06:13:02;22.50;99.90
59923;DHT22;45778;51.142;3.732;2023-06-22T06:15:30;22.60;99.90
59923;DHT22;45778;51.142;3.732;2023-06-22T06:17:55;22.70;99.90
59923;DHT22;45778;51.142;3.732;2023-06-22T06:20:23;22.90;99.90
59923;DHT22;45778;51.142;3.732;2023-06-22T06:22:49;23.00;99.90
59923;DHT22;45778;51.142;3.732;2023-06-22T06:25:16;23.20;99.90
59923;DHT22;45778;51.142;3.732;2023-06-22T06:27:43;23.20;99.90
59923;DHT22;45778;51.142;3.732;2023-06-22T06:30:13;23.30;99.90
59923;DHT22;45778;51.142;3.732;2023-06-22T06:32:39;23.30;99.90
59923;DHT22;45778;51.142;3.732;2023-06-22T06:35:07;22.90;99.90
59923;DHT22;45778;51.142;3.732;2023-06-22T06:37:36;22.90;99.90
59923;DHT22;45778;51.142;3.732;2023-06-22T06:40:03;23.10;99.90
59923;DHT22;45778;51.142;3.732;2023-06-22T06:42:30;23.20;99.90
59923;DHT22;45778;51.142;3.732;2023-06-22T06:44:57;23.30;99.90
59923;DHT22;45778;51.142;3.732;2023-06-22T06:47:22;23.40;99.90
59923;DHT22;45778;51.142;3.732;2023-06-22T06:49:48;23.60;99.90
59923;DHT22;45778;51.142;3.732;2023-06-22T06:52:14;23.70;99.90
59923;DHT22;45778;51.142;3.732;2023-06-22T06:54:40;23.50;99.90
59923;DHT22;45778;51.142;3.732;2023-06-22T06:57:07;23.60;99.90
59923;DHT22;45778;51.142;3.732;2023-06-22T06:59:36;23.50;99.90
59923;DHT22;45778;51.142;3.732;2023-06-22T07:02:01;23.40;99.90
59923;DHT22;45778;51.142;3.732;2023-06-22T07:04:27;23.40;99.90
59923;DHT22;45778;51.142;3.732;2023-06-22T07:06:53;23.60;99.90
59923;DHT22;45778;51.142;3.732;2023-06-22T07:09:18;23.70;99.90
59923;DHT22;45778;51.142;3.732;2023-06-22T07:11:44;23.60;99.90
59923;DHT22;45778;51.142;3.732;2023-06-22T07:14:10;23.60;99.90
59923;DHT22;45778;51.142;3.732;2023-06-22T07:16:35;23.60;99.90
59923;DHT22;45778;51.142;3.732;2023-06-22T07:19:02;24.00;99.90
59923;DHT22;45778;51.142;3.732;2023-06-22T07:21:27;24.30;99.90
59923;DHT22;45778;51.142;3.732;2023-06-22T07:23:53;24.30;99.90
59923;DHT22;45778;51.142;3.732;2023-06-22T07:26:20;24.30;99.90
59923;DHT22;45778;51.142;3.732;2023-06-22T07:28:45;24.20;99.90
59923;DHT22;45778;51.142;3.732;2023-06-22T07:31:11;24.50;99.90
59923;DHT22;45778;51.142;3.732;2023-06-22T07:33:37;24.30;99.90
59923;DHT22;45778;51.142;3.732;2023-06-22T07:36:03;24.30;99.90
59923;DHT22;45778;51.142;3.732;2023-06-22T07:38:33;24.10;99.90
59923;DHT22;45778;51.142;3.732;2023-06-22T07:40:59;24.00;99.90
59923;DHT22;45778;51.142;3.732;2023-06-22T07:43:25;24.20;99.90
59923;DHT22;45778;51.142;3.732;2023-06-22T07:45:51;24.40;99.90
59923;DHT22;45778;51.142;3.732;2023-06-22T07:48:21;23.60;99.90
59923;DHT22;45778;51.142;3.732;2023-06-22T07:50:48;23.60;99.90
59923;DHT22;45778;51.142;3.732;2023-06-22T07:53:13;23.80;99.90
59923;DHT22;45778;51.142;3.732;2023-06-22T07:55:39;23.50;99.90
59923;DHT22;45778;51.142;3.732;2023-06-22T07:58:05;23.70;99.90
59923;DHT22;45778;51.142;3.732;2023-06-22T08:00:30;23.90;99.90
59923;DHT22;45778;51.142;3.732;2023-06-22T08:02:56;24.40;99.90
59923;DHT22;45778;51.142;3.732;2023-06-22T08:05:22;24.00;99.90
59923;DHT22;45778;51.142;3.732;2023-06-22T08:07:47;24.00;99.90
59923;DHT22;45778;51.142;3.732;2023-06-22T08:10:13;24.40;99.90
59923;DHT22;45778;51.142;3.732;2023-06-22T08:12:40;24.90;99.90
59923;DHT22;45778;51.142;3.732;2023-06-22T08:15:06;24.70;99.90
59923;DHT22;45778;51.142;3.732;2023-06-22T08:17:33;24.40;99.90
59923;DHT22;45778;51.142;3.732;2023-06-22T08:19:58;24.50;99.90
59923;DHT22;45778;51.142;3.732;2023-06-22T08:22:24;24.80;99.90
59923;DHT22;45778;51.142;3.732;2023-06-22T08:24:50;24.80;99.90
59923;DHT22;45778;51.142;3.732;2023-06-22T08:27:16;25.10;99.90
59923;DHT22;45778;51.142;3.732;2023-06-22T08:29:43;25.20;99.90
59923;DHT22;45778;51.142;3.732;2023-06-22T08:32:11;25.20;99.90
59923;DHT22;45778;51.142;3.732;2023-06-22T08:34:37;25.00;99.90
59923;DHT22;45778;51.142;3.732;2023-06-22T08:37:02;25.30;99.90
59923;DHT22;45778;51.142;3.732;2023-06-22T08:39:32;25.30;99.90
59923;DHT22;45778;51.142;3.732;2023-06-22T08:41:58;25.50;99.90
59923;DHT22;45778;51.142;3.732;2023-06-22T08:44:23;25.40;99.90
59923;DHT22;45778;51.142;3.732;2023-06-22T08:46:49;25.30;99.90
59923;DHT22;45778;51.142;3.732;2023-06-22T08:49:15;25.00;99.90
59923;DHT22;45778;51.142;3.732;2023-06-22T08:51:40;25.20;99.90
59923;DHT22;45778;51.142;3.732;2023-06-22T08:54:06;25.30;99.90
59923;DHT22;45778;51.142;3.732;2023-06-22T08:56:32;25.00;99.90
59923;DHT22;45778;51.142;3.732;2023-06-22T08:58:57;25.30;99.90
59923;DHT22;45778;51.142;3.732;2023-06-22T09:01:23;25.40;99.90
59923;DHT22;45778;51.142;3.732;2023-06-22T09:03:49;25.20;99.90
59923;DHT22;45778;51.142;3.732;2023-06-22T09:06:21;25.20;99.90
59923;DHT22;45778;51.142;3.732;2023-06-22T09:08:47;25.00;99.90
59923;DHT22;45778;51.142;3.732;2023-06-22T09:11:13;24.90;99.90
59923;DHT22;45778;51.142;3.732;2023-06-22T09:13:38;24.90;99.90
59923;DHT22;45778;51.142;3.732;2023-06-22T09:16:04;24.80;99.90
59923;DHT22;45778;51.142;3.732;2023-06-22T09:18:30;24.90;99.90
59923;DHT22;45778;51.142;3.732;2023-06-22T09:20:56;24.90;99.90
59923;DHT22;45778;51.142;3.732;2023-06-22T09:23:22;24.70;99.90
59923;DHT22;45778;51.142;3.732;2023-06-22T09:25:47;24.50;99.90
59923;DHT22;45778;51.142;3.732;2023-06-22T09:28:14;24.50;99.90
59923;DHT22;45778;51.142;3.732;2023-06-22T09:30:40;24.40;99.90
59923;DHT22;45778;51.142;3.732;2023-06-22T09:33:05;24.30;99.90
59923;DHT22;45778;51.142;3.732;2023-06-22T09:35:31;24.10;99.90
59923;DHT22;45778;51.142;3.732;2023-06-22T09:37:56;24.10;99.90
59923;DHT22;45778;51.142;3.732;2023-06-22T09:40:22;23.80;99.90
59923;DHT22;45778;51.142;3.732;2023-06-22T09:42:48;23.80;99.90
59923;DHT22;45778;51.142;3.732;2023-06-22T09:45:13;23.60;99.90
59923;DHT22;45778;51.142;3.732;2023-06-22T09:47:39;23.70;99.90
59923;DHT22;45778;51.142;3.732;2023-06-22T09:50:05;23.50;99.90
59923;DHT22;45778;51.142;3.732;2023-06-22T09:52:31;23.60;99.90
59923;DHT22;45778;51.142;3.732;2023-06-22T09:54:57;23.60;99.90
59923;DHT22;45778;51.142;3.732;2023-06-22T09:57:23;23.70;99.90
59923;DHT22;45778;51.142;3.732;2023-06-22T09:59:48;23.60;99.90
59923;DHT22;45778;51.142;3.732;2023-06-22T10:02:14;23.70;99.90
59923;DHT22;45778;51.142;3.732;2023-06-22T10:04:40;23.60;99.90
59923;DHT22;45778;51.142;3.732;2023-06-22T10:07:06;23.50;99.90
59923;DHT22;45778;51.142;3.732;2023-06-22T10:09:31;23.50;99.90
59923;DHT22;45778;51.142;3.732;2023-06-22T10:11:57;23.20;99.90
59923;DHT22;45778;51.142;3.732;2023-06-22T10:14:23;23.30;99.90
59923;DHT22;45778;51.142;3.732;2023-06-22T10:16:52;23.40;99.90
59923;DHT22;45778;51.142;3.732;2023-06-22T10:19:18;23.00;99.90
59923;DHT22;45778;51.142;3.732;2023-06-22T10:21:43;23.10;99.90
59923;DHT22;45778;51.142;3.732;2023-06-22T10:24:09;23.10;99.90
59923;DHT22;45778;51.142;3.732;2023-06-22T10:26:35;23.00;99.90
59923;DHT22;45778;51.142;3.732;2023-06-22T10:29:02;23.20;99.90
59923;DHT22;45778;51.142;3.732;2023-06-22T10:31:28;23.30;99.90
59923;DHT22;45778;51.142;3.732;2023-06-22T10:33:54;23.30;99.90
59923;DHT22;45778;51.142;3.732;2023-06-22T10:36:21;23.40;99.90
59923;DHT22;45778;51.142;3.732;2023-06-22T10:38:48;23.20;99.90
59923;DHT22;45778;51.142;3.732;2023-06-22T10:41:14;23.20;99.90
59923;DHT22;45778;51.142;3.732;2023-06-22T10:43:40;23.20;99.90
59923;DHT22;45778;51.142;3.732;2023-06-22T10:46:06;23.10;99.90
59923;DHT22;45778;51.142;3.732;2023-06-22T10:48:32;23.10;99.90
59923;DHT22;45778;51.142;3.732;2023-06-22T10:50:58;23.20;99.90
59923;DHT22;45778;51.142;3.732;2023-06-22T10:53:23;23.30;99.90
59923;DHT22;45778;51.142;3.732;2023-06-22T10:55:49;23.10;99.90
59923;DHT22;45778;51.142;3.732;2023-06-22T10:58:17;23.00;99.90
59923;DHT22;45778;51.142;3.732;2023-06-22T11:00:43;23.20;99.90
59923;DHT22;45778;51.142;3.732;2023-06-22T11:03:09;23.00;99.90
59923;DHT22;45778;51.142;3.732;2023-06-22T11:05:35;23.20;99.90
59923;DHT22;45778;51.142;3.732;2023-06-22T11:08:00;23.30;99.90
59923;DHT22;45778;51.142;3.732;2023-06-22T11:10:26;23.40;99.90
59923;DHT22;45778;51.142;3.732;2023-06-22T11:12:52;23.50;99.90
59923;DHT22;45778;51.142;3.732;2023-06-22T11:15:18;23.70;99.90
59923;DHT22;45778;51.142;3.732;2023-06-22T11:17:44;23.90;99.90
59923;DHT22;45778;51.142;3.732;2023-06-22T11:20:11;24.00;99.90
59923;DHT22;45778;51.142;3.732;2023-06-22T11:22:40;24.20;99.90
59923;DHT22;45778;51.142;3.732;2023-06-22T11:25:07;24.30;99.90
59923;DHT22;45778;51.142;3.732;2023-06-22T11:27:33;24.30;99.90
59923;DHT22;45778;51.142;3.732;2023-06-22T11:29:59;24.40;99.90
59923;DHT22;45778;51.142;3.732;2023-06-22T11:32:24;24.50;99.90
59923;DHT22;45778;51.142;3.732;2023-06-22T11:34:50;24.70;99.90
59923;DHT22;45778;51.142;3.732;2023-06-22T11:37:16;24.70;99.90
59923;DHT22;45778;51.142;3.732;2023-06-22T11:39:42;24.70;99.90
59923;DHT22;45778;51.142;3.732;2023-06-22T11:42:11;24.60;99.90
59923;DHT22;45778;51.142;3.732;2023-06-22T11:44:37;24.30;99.90
59923;DHT22;45778;51.142;3.732;2023-06-22T11:47:02;24.00;99.90
59923;DHT22;45778;51.142;3.732;2023-06-22T11:49:31;23.70;99.90
59923;DHT22;45778;51.142;3.732;2023-06-22T11:51:56;23.50;99.90
59923;DHT22;45778;51.142;3.732;2023-06-22T11:54:22;23.50;99.90
59923;DHT22;45778;51.142;3.732;2023-06-22T11:56:48;23.20;99.90
59923;DHT22;45778;51.142;3.732;2023-06-22T11:59:13;23.20;99.90
59923;DHT22;45778;51.142;3.732;2023-06-22T12:01:39;23.10;99.90
59923;DHT22;45778;51.142;3.732;2023-06-22T12:04:05;23.00;99.90
59923;DHT22;45778;51.142;3.732;2023-06-22T12:06:37;23.00;99.90
59923;DHT22;45778;51.142;3.732;2023-06-22T12:09:03;23.10;99.90
59923;DHT22;45778;51.142;3.732;2023-06-22T12:11:30;23.20;99.90
59923;DHT22;45778;51.142;3.732;2023-06-22T12:13:57;22.60;99.90
59923;DHT22;45778;51.142;3.732;2023-06-22T12:16:27;22.70;99.90
59923;DHT22;45778;51.142;3.732;2023-06-22T12:18:53;22.50;99.90
59923;DHT22;45778;51.142;3.732;2023-06-22T12:21:19;22.80;99.90
59923;DHT22;45778;51.142;3.732;2023-06-22T12:23:45;23.00;99.90
59923;DHT22;45778;51.142;3.732;2023-06-22T12:26:10;22.80;99.90
59923;DHT22;45778;51.142;3.732;2023-06-22T12:28:36;22.90;99.90
59923;DHT22;45778;51.142;3.732;2023-06-22T12:31:02;23.00;99.90
59923;DHT22;45778;51.142;3.732;2023-06-22T12:33:27;23.40;99.90
59923;DHT22;45778;51.142;3.732;2023-06-22T12:35:53;23.50;99.90
59923;DHT22;45778;51.142;3.732;2023-06-22T12:38:18;23.40;99.90
59923;DHT22;45778;51.142;3.732;2023-06-22T12:40:44;23.60;99.90
59923;DHT22;45778;51.142;3.732;2023-06-22T12:43:12;23.90;99.90
59923;DHT22;45778;51.142;3.732;2023-06-22T12:45:38;24.10;99.90
59923;DHT22;45778;51.142;3.732;2023-06-22T12:48:04;24.00;99.90
59923;DHT22;45778;51.142;3.732;2023-06-22T12:50:30;23.70;99.90
59923;DHT22;45778;51.142;3.732;2023-06-22T12:52:56;23.70;99.90
59923;DHT22;45778;51.142;3.732;2023-06-22T12:55:21;23.90;99.90
59923;DHT22;45778;51.142;3.732;2023-06-22T12:57:47;23.50;99.90
59923;DHT22;45778;51.142;3.732;2023-06-22T13:00:13;23.20;99.90
59923;DHT22;45778;51.142;3.732;2023-06-22T13:02:39;23.50;99.90
59923;DHT22;45778;51.142;3.732;2023-06-22T13:05:05;23.70;99.90
59923;DHT22;45778;51.142;3.732;2023-06-22T13:07:30;23.40;99.90
59923;DHT22;45778;51.142;3.732;2023-06-22T13:09:56;23.90;99.90
59923;DHT22;45778;51.142;3.732;2023-06-22T13:12:22;24.30;99.90
59923;DHT22;45778;51.142;3.732;2023-06-22T13:14:48;24.30;99.90
59923;DHT22;45778;51.142;3.732;2023-06-22T13:17:14;24.30;99.90
59923;DHT22;45778;51.142;3.732;2023-06-22T13:19:39;24.70;99.90
59923;DHT22;45778;51.142;3.732;2023-06-22T13:22:10;25.00;99.90
59923;DHT22;45778;51.142;3.732;2023-06-22T13:24:50;25.20;99.90
59923;DHT22;45778;51.142;3.732;2023-06-22T13:27:16;25.40;99.90
59923;DHT22;45778;51.142;3.732;2023-06-22T13:29:42;25.60;99.90
59923;DHT22;45778;51.142;3.732;2023-06-22T13:32:07;25.30;99.90
59923;DHT22;45778;51.142;3.732;2023-06-22T13:34:33;25.30;99.90
59923;DHT22;45778;51.142;3.732;2023-06-22T13:36:59;25.50;99.90
59923;DHT22;45778;51.142;3.732;2023-06-22T13:39:25;25.50;99.90
59923;DHT22;45778;51.142;3.732;2023-06-22T13:41:50;25.50;99.90
59923;DHT22;45778;51.142;3.732;2023-06-22T13:44:16;25.70;99.90
59923;DHT22;45778;51.142;3.732;2023-06-22T13:46:42;25.40;99.90
59923;DHT22;45778;51.142;3.732;2023-06-22T13:49:08;25.90;99.90
59923;DHT22;45778;51.142;3.732;2023-06-22T13:51:33;26.50;99.90
59923;DHT22;45778;51.142;3.732;2023-06-22T13:53:59;27.20;99.90
59923;DHT22;45778;51.142;3.732;2023-06-22T13:56:25;27.70;99.90
59923;DHT22;45778;51.142;3.732;2023-06-22T13:58:50;27.30;99.90
59923;DHT22;45778;51.142;3.732;2023-06-22T14:01:16;27.10;99.90
59923;DHT22;45778;51.142;3.732;2023-06-22T14:03:42;26.80;99.90
59923;DHT22;45778;51.142;3.732;2023-06-22T14:06:10;26.60;99.90
59923;DHT22;45778;51.142;3.732;2023-06-22T14:08:37;26.50;99.90
59923;DHT22;45778;51.142;3.732;2023-06-22T14:11:02;26.20;99.90
59923;DHT22;45778;51.142;3.732;2023-06-22T14:13:28;26.10;99.90
59923;DHT22;45778;51.142;3.732;2023-06-22T14:15:54;25.70;99.90
59923;DHT22;45778;51.142;3.732;2023-06-22T14:18:20;25.30;99.90
59923;DHT22;45778;51.142;3.732;2023-06-22T14:20:48;24.90;99.90
59923;DHT22;45778;51.142;3.732;2023-06-22T14:23:14;25.00;99.90
59923;DHT22;45778;51.142;3.732;2023-06-22T14:25:40;24.30;99.90
59923;DHT22;45778;51.142;3.732;2023-06-22T14:28:06;23.90;99.90
59923;DHT22;45778;51.142;3.732;2023-06-22T14:30:31;23.60;99.90
59923;DHT22;45778;51.142;3.732;2023-06-22T14:32:57;23.30;99.90
59923;DHT22;45778;51.142;3.732;2023-06-22T14:35:23;23.30;99.90
59923;DHT22;45778;51.142;3.732;2023-06-22T14:37:50;23.30;99.90
59923;DHT22;45778;51.142;3.732;2023-06-22T14:40:15;23.20;99.90
59923;DHT22;45778;51.142;3.732;2023-06-22T14:42:41;23.20;99.90
59923;DHT22;45778;51.142;3.732;2023-06-22T14:45:07;23.50;99.90
59923;DHT22;45778;51.142;3.732;2023-06-22T14:47:33;23.40;99.90
59923;DHT22;45778;51.142;3.732;2023-06-22T14:49:58;23.80;99.90
59923;DHT22;45778;51.142;3.732;2023-06-22T14:52:26;24.30;99.90
59923;DHT22;45778;51.142;3.732;2023-06-22T14:54:53;24.80;99.90
59923;DHT22;45778;51.142;3.732;2023-06-22T14:57:19;24.50;99.90
59923;DHT22;45778;51.142;3.732;2023-06-22T14:59:46;24.80;99.90
59923;DHT22;45778;51.142;3.732;2023-06-22T15:02:14;24.70;99.90
59923;DHT22;45778;51.142;3.732;2023-06-22T15:04:40;24.40;99.90
59923;DHT22;45778;51.142;3.732;2023-06-22T15:07:06;23.80;99.90
59923;DHT22;45778;51.142;3.732;2023-06-22T15:09:31;23.40;99.90
59923;DHT22;45778;51.142;3.732;2023-06-22T15:11:57;23.30;99.90
59923;DHT22;45778;51.142;3.732;2023-06-22T15:14:23;23.80;99.90
59923;DHT22;45778;51.142;3.732;2023-06-22T15:16:50;24.30;99.90
59923;DHT22;45778;51.142;3.732;2023-06-22T15:19:15;24.80;99.90
59923;DHT22;45778;51.142;3.732;2023-06-22T15:21:41;24.40;99.90
59923;DHT22;45778;51.142;3.732;2023-06-22T15:24:07;24.10;99.90
59923;DHT22;45778;51.142;3.732;2023-06-22T15:26:33;23.50;99.90
59923;DHT22;45778;51.142;3.732;2023-06-22T15:28:58;23.80;99.90
59923;DHT22;45778;51.142;3.732;2023-06-22T15:31:24;23.80;99.90
59923;DHT22;45778;51.142;3.732;2023-06-22T15:33:51;23.10;99.90